Time;durP1;ratioP1;P1;durP2;ratioP2;P2;SDS_P1;SDS_P2;PMS_P1;PMS_P2;Temp;Humidity;BMP_temperature;BMP_pressure;BME280_temperature;BME280_humidity;BME280_pressure;Samples;Min_cycle;Max_cycle;Signal;HPM_P1;HPM_P2
2021/03/09 00:03:18;;;;;;;2.10;1.27;;;;;;;-2.68;100.00;99468.13;3798637;76;395034;-74
2021/03/09 00:08:39;;;;;;;1.33;1.23;;;;;;;-2.83;100.00;99471.17;3806496;76;383583;-74
2021/03/09 00:14:00;;;;;;;1.03;0.93;;;;;;;-2.60;100.00;99462.03;3786840;76;387749;-73
2021/03/09 00:19:21;;;;;;;1.47;1.33;;;;;;;-2.34;100.00;99463.25;3799266;76;393937;-74
2021/03/09 00:24:42;;;;;;;1.33;1.23;;;;;;;-2.47;100.00;99463.86;3791985;76;383580;-74
2021/03/09 00:30:04;;;;;;;1.93;1.37;;;;;;;-2.27;100.00;99462.29;3802776;76;396383;-74
2021/03/09 00:35:25;;;;;;;2.57;2.47;;;;;;;-2.31;100.00;99459.95;3798606;76;396170;-74
2021/03/09 00:40:47;;;;;;;3.73;3.43;;;;;;;-2.55;100.00;99453.28;3796664;76;396372;-74
2021/03/09 00:46:08;;;;;;;1.70;1.60;;;;;;;-2.54;100.00;99445.98;3791817;75;396357;-74
2021/03/09 00:51:29;;;;;;;3.93;3.63;;;;;;;-2.28;100.00;99441.02;3799841;76;396312;-74
2021/03/09 00:56:50;;;;;;;2.17;2.07;;;;;;;-2.49;100.00;99436.43;3800751;76;396296;-74
2021/03/09 01:02:11;;;;;;;2.33;2.00;;;;;;;-2.56;100.00;99426.64;3803850;76;396128;-75
2021/03/09 01:07:33;;;;;;;2.87;2.43;;;;;;;-2.56;100.00;99420.72;3797744;76;396374;-74
2021/03/09 01:12:54;;;;;;;1.60;1.50;;;;;;;-2.53;100.00;99415.27;3805990;76;396335;-74
2021/03/09 01:18:15;;;;;;;4.37;3.73;;;;;;;-2.36;100.00;99414.29;3807818;76;395054;-73
2021/03/09 01:23:36;;;;;;;5.30;3.23;;;;;;;-2.47;100.00;99412.69;3804678;76;392897;-75
2021/03/09 01:28:57;;;;;;;2.47;2.27;;;;;;;-2.47;100.00;99403.27;3805938;76;396344;-73
2021/03/09 01:34:18;;;;;;;1.83;1.73;;;;;;;-2.33;100.00;99404.23;3776926;76;389865;-74
2021/03/09 01:39:39;;;;;;;2.17;2.00;;;;;;;-2.35;100.00;99405.11;3776622;76;396293;-73
2021/03/09 01:45:01;;;;;;;8.20;2.50;;;;;;;-2.42;100.00;99397.77;3776754;78;396044;-74
2021/03/09 01:50:24;;;;;;;1.70;1.60;;;;;;;-2.38;100.00;99390.65;3804795;75;396399;-74
2021/03/09 01:55:45;;;;;;;2.30;2.20;;;;;;;-2.30;100.00;99391.50;3803337;75;390056;-74
2021/03/09 02:01:06;;;;;;;2.87;2.57;;;;;;;-2.31;100.00;99387.21;3804724;76;396371;-74
2021/03/09 02:06:27;;;;;;;26.93;4.00;;;;;;;-2.29;100.00;99375.59;3802181;77;400203;-73
2021/03/09 02:11:58;;;;;;;4.27;3.73;;;;;;;-2.32;100.00;99368.11;3804811;76;395056;-74
2021/03/09 02:17:27;;;;;;;1.57;1.47;;;;;;;-2.28;100.00;99363.70;3803349;76;396077;-74
2021/03/09 02:23:26;;;;;;;3.63;2.30;;;;;;;-2.18;100.00;99359.38;3804044;76;396307;-74
2021/03/09 02:29:13;;;;;;;2.80;1.53;;;;;;;-2.23;100.00;99362.78;3777207;76;396108;-74
2021/03/09 02:34:37;;;;;;;3.20;2.90;;;;;;;-2.20;100.00;99355.41;3804047;75;396290;-74
2021/03/09 02:39:59;;;;;;;9.60;3.53;;;;;;;-2.22;100.00;99360.34;3805481;76;400245;-75
2021/03/09 02:45:22;;;;;;;4.90;1.80;;;;;;;-2.21;100.00;99351.13;3802389;77;394991;-74
2021/03/09 02:50:45;;;;;;;4.80;2.60;;;;;;;-2.13;100.00;99345.79;3802615;76;396367;-74
2021/03/09 02:56:08;;;;;;;1.60;1.50;;;;;;;-2.09;100.00;99350.00;3804058;76;395061;-75
2021/03/09 03:01:30;;;;;;;2.23;2.03;;;;;;;-2.04;100.00;99343.12;3803393;75;396312;-74
2021/03/09 03:06:54;;;;;;;6.77;2.87;;;;;;;-1.79;100.00;99341.07;3803595;77;392956;-74
2021/03/09 03:12:16;;;;;;;1.73;1.63;;;;;;;-1.88;100.00;99333.50;3801964;76;396134;-74
2021/03/09 03:17:38;;;;;;;1.67;1.57;;;;;;;-2.12;100.00;99331.22;3802636;76;390062;-74
2021/03/09 03:23:00;;;;;;;3.20;2.37;;;;;;;-2.18;100.00;99328.95;3799503;76;396099;-75
2021/03/09 03:28:23;;;;;;;1.97;1.80;;;;;;;-2.08;100.00;99333.52;3799876;77;394340;-74
2021/03/09 03:33:44;;;;;;;4.30;2.10;;;;;;;-1.86;100.00;99325.38;3800446;77;385706;-74
2021/03/09 03:39:07;;;;;;;2.63;1.40;;;;;;;-2.12;100.00;99332.56;3799732;76;396112;-74
2021/03/09 03:44:28;;;;;;;1.03;0.93;;;;;;;-2.17;100.00;99321.91;3800187;76;394311;-74
2021/03/09 03:49:49;;;;;;;3.63;1.93;;;;;;;-2.04;100.00;99321.02;3799726;77;396123;-74
2021/03/09 03:55:34;;;;;;;1.43;1.33;;;;;;;-2.02;100.00;99314.74;3800152;76;389788;-74
2021/03/09 04:00:59;;;;;;;2.10;2.00;;;;;;;-2.08;100.00;99319.26;3801442;75;391898;-74
2021/03/09 04:06:26;;;;;;;2.07;1.40;;;;;;;-1.93;100.00;99322.31;3799963;76;391889;-75
2021/03/09 04:11:48;;;;;;;2.13;2.03;;;;;;;-1.78;100.00;99310.31;3775396;77;396072;-74
2021/03/09 04:17:11;;;;;;;2.93;1.17;;;;;;;-1.88;100.00;99315.98;3800071;77;396080;-74
2021/03/09 04:22:33;;;;;;;1.50;0.80;;;;;;;-1.96;100.00;99312.17;3799439;77;389827;-74
2021/03/09 04:27:55;;;;;;;4.73;1.93;;;;;;;-2.02;100.00;99312.05;3800273;77;394008;-74
2021/03/09 04:33:17;;;;;;;1.17;0.93;;;;;;;-2.03;100.00;99306.45;3800712;76;383808;-74
2021/03/09 04:38:39;;;;;;;2.00;1.67;;;;;;;-1.98;100.00;99307.64;3798705;76;395247;-74
2021/03/09 04:44:01;;;;;;;3.20;1.60;;;;;;;-1.90;100.00;99305.52;3800375;76;394000;-74
2021/03/09 04:49:22;;;;;;;2.17;2.00;;;;;;;-1.93;100.00;99303.44;3799785;76;396079;-74
2021/03/09 04:54:44;;;;;;;7.47;4.37;;;;;;;-1.95;100.00;99309.72;3800109;77;396075;-74
2021/03/09 05:00:08;;;;;;;10.33;2.60;;;;;;;-1.88;100.00;99310.05;3800162;76;396297;-74
2021/03/09 05:05:29;;;;;;;2.80;2.60;;;;;;;-1.88;100.00;99311.41;3800040;76;391922;-74
2021/03/09 05:10:50;;;;;;;2.33;2.13;;;;;;;-1.70;100.00;99310.34;3800255;76;387786;-74
2021/03/09 05:16:11;;;;;;;4.77;3.30;;;;;;;-1.76;100.00;99313.50;3778969;76;388800;-74
2021/03/09 05:21:32;;;;;;;2.40;2.00;;;;;;;-1.47;100.00;99309.89;3814943;76;393987;-74
2021/03/09 05:26:55;;;;;;;12.83;5.07;;;;;;;-1.62;100.00;99310.92;3817188;76;400242;-74
2021/03/09 05:32:16;;;;;;;4.80;2.90;;;;;;;-1.74;100.00;99303.98;3817348;76;396109;-74
2021/03/09 05:37:37;;;;;;;3.10;2.23;;;;;;;-1.46;100.00;99303.39;3817790;76;396131;-74
2021/03/09 05:42:58;;;;;;;2.20;2.10;;;;;;;-1.49;100.00;99301.31;3817742;76;396297;-73
2021/03/09 05:48:19;;;;;;;2.43;2.23;;;;;;;-1.67;100.00;99302.17;3817464;76;393012;-74
2021/03/09 05:53:40;;;;;;;7.73;3.50;;;;;;;-1.72;100.00;99309.05;3817971;76;393985;-74
2021/03/09 05:59:03;;;;;;;2.60;2.40;;;;;;;-1.57;100.00;99303.45;3817171;76;396131;-74
2021/03/09 06:04:24;;;;;;;3.00;1.63;;;;;;;-1.32;100.00;99312.70;3816323;76;396071;-74
2021/03/09 06:09:46;;;;;;;3.30;3.00;;;;;;;-1.50;100.00;99304.34;3817134;76;396276;-74
2021/03/09 06:15:07;;;;;;;2.23;2.10;;;;;;;-1.54;100.00;99297.44;3817299;77;395034;-74
2021/03/09 06:20:30;;;;;;;8.43;2.40;;;;;;;-1.45;100.00;99301.48;3817548;77;393992;-74
2021/03/09 06:25:51;;;;;;;1.20;1.10;;;;;;;-1.28;100.00;99306.89;3801484;74;392143;-75
2021/03/09 06:31:12;;;;;;;3.33;3.13;;;;;;;-1.23;100.00;99302.70;3817280;76;396156;-74
2021/03/09 06:36:33;;;;;;;1.53;1.30;;;;;;;-1.10;100.00;99310.65;3817238;76;392936;-74
2021/03/09 06:41:57;;;;;;;6.27;2.73;;;;;;;-0.97;100.00;99305.63;3817609;76;393935;-74
2021/03/09 06:47:19;;;;;;;4.10;2.20;;;;;;;-0.81;100.00;99308.65;3816310;76;395085;-74
2021/03/09 06:52:42;;;;;;;6.23;2.47;;;;;;;-0.60;100.00;99312.50;3818062;76;387692;-74
2021/03/09 06:58:09;;;;;;;5.57;2.73;;;;;;;-0.38;100.00;99320.95;3817293;76;396090;-74
2021/03/09 07:03:39;;;;;;;2.80;1.53;;;;;;;-0.18;100.00;99326.45;3809820;76;396079;-74
2021/03/09 07:09:10;;;;;;;2.47;1.97;;;;;;;0.04;100.00;99332.39;3817393;76;396481;-74
2021/03/09 07:14:33;;;;;;;2.30;1.83;;;;;;;0.20;100.00;99333.44;3816962;76;396334;-75
2021/03/09 07:19:56;;;;;;;11.83;3.70;;;;;;;0.38;100.00;99341.70;3817449;76;396079;-74
2021/03/09 07:25:18;;;;;;;4.13;2.07;;;;;;;0.56;100.00;99339.72;3817406;76;396130;-75
2021/03/09 07:30:43;;;;;;;2.63;2.20;;;;;;;0.65;100.00;99343.17;3799116;76;396316;-74
2021/03/09 07:36:07;;;;;;;5.33;2.87;;;;;;;0.79;100.00;99341.23;3819021;74;396127;-74
2021/03/09 07:41:27;;;;;;;2.90;2.70;;;;;;;0.87;100.00;99336.86;3817370;76;396116;-75
2021/03/09 07:46:49;;;;;;;9.53;4.87;;;;;;;1.15;100.00;99334.64;3817827;76;396384;-74
2021/03/09 07:52:17;;;;;;;16.43;3.90;;;;;;;1.49;100.00;99326.20;3817398;76;396384;-74
2021/03/09 07:57:38;;;;;;;4.93;3.67;;;;;;;1.78;100.00;99328.75;3817190;76;396162;-75
2021/03/09 08:03:00;;;;;;;4.40;3.00;;;;;;;2.09;100.00;99331.77;3817020;76;396323;-75
2021/03/09 08:08:40;;;;;;;7.23;4.10;;;;;;;2.29;100.00;99330.31;3817294;76;396083;-75
2021/03/09 08:14:07;;;;;;;4.13;1.87;;;;;;;2.51;100.00;99334.70;3817396;76;395110;-75
2021/03/09 08:19:37;;;;;;;13.93;3.67;;;;;;;2.98;100.00;99330.36;3819320;74;394004;-75
2021/03/09 08:24:59;;;;;;;52.07;4.27;;;;;;;3.24;100.00;99336.14;3812350;76;396667;-75
2021/03/09 08:30:32;;;;;;;10.87;4.27;;;;;;;3.45;100.00;99328.02;3813427;76;396083;-76
2021/03/09 08:35:54;;;;;;;2.90;2.60;;;;;;;3.52;100.00;99327.44;3800525;75;396196;-74
2021/03/09 08:41:15;;;;;;;6.77;3.83;;;;;;;3.93;100.00;99332.66;3792167;76;388757;-74
2021/03/09 08:46:56;;;;;;;16.20;4.20;;;;;;;4.28;100.00;99332.75;3803785;76;396071;-75
2021/03/09 08:52:23;;;;;;;4.30;3.80;;;;;;;4.92;99.95;99328.45;3798773;76;396075;-75
2021/03/09 08:57:44;;;;;;;3.40;3.20;;;;;;;5.71;95.41;99326.59;3799421;76;396127;-75
2021/03/09 09:03:06;;;;;;;4.90;3.80;;;;;;;5.95;89.16;99330.39;3814218;75;396355;-75
2021/03/09 09:08:27;;;;;;;8.33;4.87;;;;;;;5.67;88.68;99320.86;3807792;76;394000;-75
2021/03/09 09:13:48;;;;;;;4.63;3.70;;;;;;;5.44;95.04;99331.48;3814402;76;396312;-75
2021/03/09 09:19:10;;;;;;;3.67;3.13;;;;;;;5.60;92.36;99328.33;3807116;76;396109;-75
2021/03/09 09:24:31;;;;;;;12.27;6.50;;;;;;;5.80;90.64;99325.83;3810254;77;398367;-75
2021/03/09 09:29:57;;;;;;;9.17;3.90;;;;;;;5.64;92.50;99318.28;3800964;77;396076;-75
2021/03/09 09:35:19;;;;;;;9.90;4.47;;;;;;;5.82;91.67;99310.45;3817609;76;389828;-75
2021/03/09 09:40:43;;;;;;;5.50;4.50;;;;;;;5.99;88.76;99312.70;3817589;76;396036;-75
2021/03/09 09:46:10;;;;;;;12.27;3.53;;;;;;;6.19;87.38;99315.58;3812641;76;396170;-75
2021/03/09 09:51:31;;;;;;;4.07;2.60;;;;;;;6.17;84.08;99325.51;3817072;76;396165;-74
2021/03/09 09:56:52;;;;;;;10.17;4.30;;;;;;;5.44;91.73;99319.21;3817657;76;396087;-75
2021/03/09 10:02:21;;;;;;;5.70;3.50;;;;;;;6.23;89.85;99318.58;3819214;74;396359;-75
2021/03/09 10:07:42;;;;;;;7.90;4.03;;;;;;;6.88;78.52;99313.16;3816353;76;396144;-75
2021/03/09 10:13:21;;;;;;;5.73;3.63;;;;;;;6.61;79.95;99309.65;3817544;76;396396;-75
2021/03/09 10:18:42;;;;;;;4.67;3.37;;;;;;;6.73;81.11;99311.38;3818395;76;396389;-75
2021/03/09 10:24:06;;;;;;;9.33;2.97;;;;;;;7.23;75.57;99304.84;3818192;76;394060;-75
2021/03/09 10:29:29;;;;;;;10.37;4.10;;;;;;;7.54;76.33;99301.14;3817495;76;399363;-75
2021/03/09 10:34:58;;;;;;;9.60;4.50;;;;;;;8.18;64.19;99296.55;3817345;76;397052;-76
2021/03/09 10:40:17;;;;;;;8.80;5.03;;;;;;;8.72;61.32;99298.74;3817786;76;397075;-76
2021/03/09 10:45:40;;;;;;;11.53;4.77;;;;;;;9.31;60.29;99294.96;3818138;75;391899;-75
2021/03/09 10:51:01;;;;;;;16.83;5.50;;;;;;;9.63;59.78;99287.06;3817171;76;400245;-75
2021/03/09 10:56:23;;;;;;;5.80;3.90;;;;;;;10.00;57.00;99284.81;3817740;76;397281;-75
2021/03/09 11:01:45;;;;;;;5.60;3.83;;;;;;;10.13;53.19;99278.34;3820037;74;397078;-76
2021/03/09 11:07:06;;;;;;;5.70;4.27;;;;;;;10.26;55.80;99285.05;3817244;76;397105;-75
2021/03/09 11:12:27;;;;;;;5.80;4.50;;;;;;;11.01;55.18;99277.88;3817613;76;397356;-76
2021/03/09 11:17:48;;;;;;;8.53;4.53;;;;;;;12.02;51.28;99271.36;3818843;76;388004;-75
2021/03/09 11:23:10;;;;;;;7.87;4.70;;;;;;;11.91;50.49;99273.20;3819738;76;390867;-75
2021/03/09 11:28:31;;;;;;;7.70;5.20;;;;;;;12.91;47.93;99264.72;3813115;76;397049;-76
2021/03/09 11:33:53;;;;;;;6.60;5.20;;;;;;;12.48;46.68;99268.26;3812512;77;396079;-75
2021/03/09 11:39:14;;;;;;;6.20;4.10;;;;;;;11.71;52.29;99259.74;3811451;76;396494;-76
2021/03/09 11:44:35;;;;;;;5.07;4.20;;;;;;;13.12;48.82;99248.71;3812578;76;397005;-75
2021/03/09 11:49:56;;;;;;;9.60;5.40;;;;;;;14.03;44.35;99245.51;3813025;76;396119;-76
2021/03/09 11:55:17;;;;;;;7.33;4.93;;;;;;;12.11;44.91;99242.73;3813612;76;389697;-75
2021/03/09 12:00:38;;;;;;;4.90;4.40;;;;;;;10.27;50.88;99234.36;3812327;76;396389;-76
2021/03/09 12:05:59;;;;;;;5.40;4.60;;;;;;;9.64;53.03;99229.58;3812747;76;396126;-75
2021/03/09 12:11:20;;;;;;;8.73;3.47;;;;;;;10.24;55.84;99228.29;3812617;76;396996;-76
2021/03/09 12:16:42;;;;;;;10.00;4.47;;;;;;;11.46;52.47;99218.50;3813340;76;386953;-75
2021/03/09 12:22:03;;;;;;;4.77;4.30;;;;;;;12.27;49.35;99215.42;3812556;76;396734;-75
2021/03/09 12:27:24;;;;;;;6.30;4.00;;;;;;;11.14;44.29;99212.97;3817096;75;397012;-75
2021/03/09 12:32:45;;;;;;;7.07;3.80;;;;;;;9.13;49.06;99209.61;3816856;77;393934;-75
2021/03/09 12:38:07;;;;;;;7.13;2.90;;;;;;;9.03;50.55;99198.80;3799630;76;397327;-75
2021/03/09 12:43:28;;;;;;;9.63;3.93;;;;;;;8.16;54.51;99193.37;3817734;76;394270;-75
2021/03/09 12:48:49;;;;;;;3.43;1.97;;;;;;;7.66;56.04;99187.28;3817501;76;397042;-74
2021/03/09 12:54:10;;;;;;;2.40;2.20;;;;;;;7.49;55.70;99184.35;3817218;76;397044;-75
2021/03/09 12:59:31;;;;;;;4.13;2.30;;;;;;;7.68;57.16;99175.94;3817336;76;396388;-75
2021/03/09 13:04:55;;;;;;;1.83;1.63;;;;;;;7.36;58.25;99171.52;3817286;76;397058;-75
2021/03/09 13:10:17;;;;;;;5.03;2.87;;;;;;;7.91;55.95;99164.41;3817406;76;396091;-75
2021/03/09 13:15:38;;;;;;;3.43;3.13;;;;;;;7.46;55.15;99160.48;3817294;76;397048;-75
2021/03/09 13:20:59;;;;;;;4.97;2.90;;;;;;;7.76;54.64;99159.77;3817158;76;397080;-75
2021/03/09 13:26:21;;;;;;;2.83;2.63;;;;;;;7.85;54.20;99153.40;3817164;75;396367;-75
2021/03/09 13:31:42;;;;;;;6.47;3.30;;;;;;;7.98;54.96;99143.91;3817165;76;397118;-75
2021/03/09 13:37:03;;;;;;;7.03;2.70;;;;;;;7.76;54.36;99143.34;3817196;76;397040;-75
2021/03/09 13:42:25;;;;;;;10.70;3.03;;;;;;;7.53;54.57;99144.91;3800816;76;396051;-75
2021/03/09 13:47:46;;;;;;;5.57;3.93;;;;;;;7.82;53.83;99143.19;3813062;76;396323;-75
2021/03/09 13:53:09;;;;;;;3.97;3.13;;;;;;;8.10;53.81;99129.12;3816349;76;397002;-75
2021/03/09 13:58:30;;;;;;;6.87;3.00;;;;;;;8.37;53.47;99129.12;3817198;76;397295;-76
2021/03/09 14:03:51;;;;;;;1.60;1.50;;;;;;;7.93;52.41;99130.58;3819012;74;394905;-75
2021/03/09 14:09:13;;;;;;;3.20;2.80;;;;;;;7.78;53.39;99127.33;3819223;74;397079;-75
2021/03/09 14:14:34;;;;;;;6.73;4.30;;;;;;;7.45;54.22;99126.84;3817570;76;397052;-75
2021/03/09 14:19:56;;;;;;;2.73;2.43;;;;;;;7.34;55.89;99124.61;3817107;76;397010;-75
2021/03/09 14:25:17;;;;;;;5.17;3.30;;;;;;;7.63;56.10;99118.20;3817421;74;396308;-74
2021/03/09 14:30:39;;;;;;;3.73;3.10;;;;;;;8.09;54.04;99109.73;3814231;75;397025;-77
2021/03/09 14:36:00;;;;;;;4.83;3.00;;;;;;;7.66;54.71;99111.98;3789852;76;397022;-77
2021/03/09 14:41:21;;;;;;;5.57;3.00;;;;;;;7.44;55.42;99108.07;3803180;76;396119;-77
2021/03/09 14:46:43;;;;;;;4.40;2.80;;;;;;;7.29;55.50;99108.52;3807955;76;396061;-77
2021/03/09 14:52:04;;;;;;;7.10;2.20;;;;;;;7.56;55.04;99117.34;3805461;75;397042;-77
2021/03/09 14:57:27;;;;;;;6.70;2.13;;;;;;;7.35;54.74;99112.47;3829035;75;394959;-76
2021/03/09 15:02:52;;;;;;;7.40;4.73;;;;;;;7.57;55.38;99107.97;3776733;78;396151;-79
2021/03/09 15:08:15;;;;;;;12.03;4.57;;;;;;;7.67;54.48;99111.39;3779400;75;397310;-80
2021/03/09 15:13:34;;;;;;;4.60;4.20;;;;;;;7.42;55.47;99102.98;3779168;75;397114;-80
2021/03/09 15:18:56;;;;;;;2.20;2.00;;;;;;;7.60;55.93;99101.75;3776724;76;397060;-79
2021/03/09 15:24:17;;;;;;;3.20;2.70;;;;;;;7.65;54.79;99102.20;3776670;76;397051;-80
2021/03/09 15:29:38;;;;;;;5.03;3.43;;;;;;;7.44;56.58;99107.47;3816153;76;397052;-79
2021/03/09 15:34:59;;;;;;;6.10;3.63;;;;;;;6.92;57.45;99108.33;3818408;76;396102;-79
2021/03/09 15:40:21;;;;;;;4.80;2.07;;;;;;;6.93;57.92;99099.56;3818505;76;397077;-79
2021/03/09 15:45:42;;;;;;;4.03;2.20;;;;;;;6.89;58.97;99097.35;3826370;74;397104;-79
2021/03/09 15:51:03;;;;;;;2.40;1.83;;;;;;;6.60;61.04;99096.24;3817997;76;396079;-79
2021/03/09 15:56:24;;;;;;;5.00;3.27;;;;;;;6.70;60.71;99090.12;3817962;76;396091;-79
2021/03/09 16:01:45;;;;;;;1.90;1.80;;;;;;;6.88;60.82;99090.30;3817191;76;396292;-79
2021/03/09 16:07:07;;;;;;;6.50;3.33;;;;;;;6.79;60.37;99097.45;3818289;76;396288;-79
2021/03/09 16:12:28;;;;;;;19.63;8.17;;;;;;;6.66;61.74;99099.44;3817799;76;391903;-79
2021/03/09 16:17:49;;;;;;;7.67;4.27;;;;;;;6.69;60.47;99097.34;3818114;76;394055;-79
2021/03/09 16:23:10;;;;;;;2.60;1.83;;;;;;;6.60;61.54;99096.84;3817367;76;395145;-79
2021/03/09 16:28:32;;;;;;;6.23;3.10;;;;;;;6.65;63.30;99095.94;3810210;74;396300;-79
2021/03/09 16:33:53;;;;;;;7.50;4.33;;;;;;;6.65;64.42;99097.86;3803508;76;397036;-79
2021/03/09 16:39:14;;;;;;;5.63;2.77;;;;;;;6.61;64.89;99099.78;3802745;75;396177;-79
2021/03/09 16:44:36;;;;;;;2.00;1.53;;;;;;;6.45;66.49;99108.77;3803347;75;394952;-79
2021/03/09 16:49:57;;;;;;;2.37;1.77;;;;;;;6.26;67.27;99107.52;3801646;76;391839;-79
2021/03/09 16:55:19;;;;;;;5.20;3.63;;;;;;;6.24;67.06;99113.16;3803863;75;396094;-80
2021/03/09 17:00:41;;;;;;;4.03;2.47;;;;;;;6.36;67.17;99119.18;3804756;76;396179;-78
2021/03/09 17:06:02;;;;;;;4.00;2.43;;;;;;;6.33;66.44;99131.64;3803331;76;397071;-81
2021/03/09 17:11:23;;;;;;;12.83;2.30;;;;;;;6.21;67.18;99137.91;3803047;75;396315;-77
2021/03/09 17:16:45;;;;;;;3.67;2.20;;;;;;;6.15;67.81;99142.09;3803417;75;396103;-77
2021/03/09 17:22:07;;;;;;;4.70;4.00;;;;;;;5.84;71.33;99151.19;3801660;76;397046;-78
2021/03/09 17:27:28;;;;;;;3.23;2.30;;;;;;;6.02;71.09;99146.20;3806282;76;394004;-78
2021/03/09 17:32:51;;;;;;;3.07;2.70;;;;;;;5.87;71.58;99149.88;3783570;76;396390;-78
2021/03/09 17:38:12;;;;;;;5.30;3.97;;;;;;;5.78;73.56;99158.08;3806268;76;396161;-78
2021/03/09 17:43:33;;;;;;;2.00;1.60;;;;;;;5.98;73.40;99159.59;3800491;76;396405;-79
2021/03/09 17:48:55;;;;;;;4.23;3.47;;;;;;;5.72;75.92;99167.16;3796880;76;396076;-79
2021/03/09 17:54:16;;;;;;;1.97;1.80;;;;;;;5.36;79.82;99181.11;3778258;76;390093;-80
2021/03/09 17:59:37;;;;;;;2.67;1.40;;;;;;;5.54;80.02;99181.06;3805833;76;389878;-79
2021/03/09 18:04:58;;;;;;;19.57;3.23;;;;;;;5.49;80.96;99186.80;3805079;76;394260;-79
2021/03/09 18:10:20;;;;;;;2.70;2.50;;;;;;;5.18;86.67;99192.26;3803547;76;396364;-79
2021/03/09 18:15:41;;;;;;;8.67;3.03;;;;;;;4.99;92.32;99197.16;3804454;76;396124;-79
2021/03/09 18:21:02;;;;;;;2.97;2.00;;;;;;;4.81;96.28;99202.05;3777749;76;393992;-78
2021/03/09 18:26:23;;;;;;;16.63;2.27;;;;;;;4.77;95.39;99194.36;3801957;77;393233;-79
2021/03/09 18:31:45;;;;;;;5.27;3.17;;;;;;;4.84;95.00;99206.20;3802908;75;395079;-79
2021/03/09 18:37:06;;;;;;;5.87;2.93;;;;;;;4.91;95.15;99200.12;3805364;76;396040;-78
2021/03/09 18:42:27;;;;;;;3.13;2.33;;;;;;;4.96;94.93;99199.82;3802506;76;396111;-79
2021/03/09 18:47:49;;;;;;;3.23;2.93;;;;;;;5.00;93.70;99208.28;3803052;77;396146;-79
2021/03/09 18:53:10;;;;;;;4.57;2.13;;;;;;;5.02;92.25;99213.37;3804623;76;393992;-79
2021/03/09 18:58:31;;;;;;;3.60;2.00;;;;;;;4.97;93.13;99207.63;3804728;77;391961;-80
2021/03/09 19:03:53;;;;;;;3.23;2.50;;;;;;;4.95;94.07;99199.60;3803238;76;396084;-80
2021/03/09 19:09:16;;;;;;;4.17;2.43;;;;;;;4.95;94.54;99205.86;3804806;75;396284;-80
2021/03/09 19:14:37;;;;;;;4.00;3.13;;;;;;;4.91;96.01;99212.39;3804295;76;396379;-80
2021/03/09 19:19:59;;;;;;;2.60;2.43;;;;;;;5.00;100.00;99211.59;3805702;75;396057;-80
2021/03/09 19:25:20;;;;;;;4.63;2.67;;;;;;;5.00;100.00;99220.55;3802659;76;396130;-81
2021/03/09 19:30:42;;;;;;;8.40;6.13;;;;;;;4.83;100.00;99222.93;3809241;75;391883;-81
2021/03/09 19:36:05;;;;;;;9.30;3.83;;;;;;;4.73;100.00;99215.31;3813232;76;393986;-81
2021/03/09 19:41:26;;;;;;;7.00;3.97;;;;;;;4.72;100.00;99219.95;3811357;76;396370;-81
2021/03/09 19:46:48;;;;;;;3.80;2.47;;;;;;;4.63;100.00;99217.23;3814083;74;394008;-81
2021/03/09 19:52:09;;;;;;;8.13;3.97;;;;;;;4.53;100.00;99215.06;3813996;76;393968;-81
2021/03/09 19:57:30;;;;;;;4.07;3.13;;;;;;;4.48;100.00;99211.27;3814311;74;396080;-80
2021/03/09 20:02:51;;;;;;;2.60;2.40;;;;;;;4.49;100.00;99214.20;3813043;76;396127;-81
2021/03/09 20:08:12;;;;;;;15.67;3.70;;;;;;;4.52;100.00;99208.62;3812839;77;396297;-81
2021/03/09 20:13:34;;;;;;;2.60;1.60;;;;;;;4.42;100.00;99215.42;3812904;76;394293;-81
2021/03/09 20:18:56;;;;;;;3.20;1.83;;;;;;;4.34;100.00;99208.23;3812821;76;394328;-80
2021/03/09 20:24:17;;;;;;;3.00;2.40;;;;;;;4.27;100.00;99216.25;3812756;76;396075;-81
2021/03/09 20:29:39;;;;;;;5.03;2.50;;;;;;;4.32;100.00;99220.05;3813076;76;395038;-81
2021/03/09 20:35:01;;;;;;;4.30;1.43;;;;;;;4.23;100.00;99230.92;3813069;76;394021;-80
2021/03/09 20:40:22;;;;;;;4.20;3.43;;;;;;;4.11;100.00;99229.10;3813110;76;396096;-80
2021/03/09 20:45:45;;;;;;;7.17;3.90;;;;;;;4.04;100.00;99232.98;3813360;76;396334;-80
2021/03/09 20:51:07;;;;;;;5.30;2.47;;;;;;;3.96;100.00;99229.88;3813140;76;396347;-80
2021/03/09 20:56:28;;;;;;;8.03;4.93;;;;;;;3.90;100.00;99226.98;3813431;76;396108;-79
2021/03/09 21:01:49;;;;;;;2.40;1.67;;;;;;;3.88;100.00;99225.22;3813140;76;395302;-79
2021/03/09 21:07:10;;;;;;;4.90;3.70;;;;;;;3.80;100.00;99225.59;3814662;74;396352;-79
2021/03/09 21:12:32;;;;;;;6.10;3.57;;;;;;;3.75;100.00;99233.23;3813882;76;396362;-79
2021/03/09 21:17:53;;;;;;;5.20;1.80;;;;;;;3.71;100.00;99242.66;3814657;74;396310;-80
2021/03/09 21:23:15;;;;;;;6.00;3.40;;;;;;;3.65;100.00;99240.55;3813013;76;396342;-79
2021/03/09 21:28:36;;;;;;;3.57;3.27;;;;;;;3.67;100.00;99240.44;3814113;74;394069;-79
2021/03/09 21:33:58;;;;;;;5.07;3.37;;;;;;;3.64;100.00;99236.23;3793304;75;396132;-79
2021/03/09 21:39:19;;;;;;;4.30;3.87;;;;;;;3.71;100.00;99228.28;3776925;76;396148;-80
2021/03/09 21:44:40;;;;;;;2.37;2.07;;;;;;;3.75;100.00;99225.88;3777164;76;394008;-79
2021/03/09 21:50:01;;;;;;;13.87;4.73;;;;;;;3.74;100.00;99227.56;3777197;76;396411;-79
2021/03/09 21:55:24;;;;;;;3.83;3.53;;;;;;;3.73;100.00;99231.42;3777343;76;393039;-79
2021/03/09 22:00:46;;;;;;;10.53;3.60;;;;;;;3.75;100.00;99235.39;3777064;78;400467;-79
2021/03/09 22:06:07;;;;;;;4.43;2.63;;;;;;;3.81;100.00;99241.34;3777397;76;391848;-79
2021/03/09 22:11:29;;;;;;;3.90;3.17;;;;;;;3.79;100.00;99227.31;3777324;76;391910;-81
2021/03/09 22:16:50;;;;;;;9.73;3.27;;;;;;;3.76;100.00;99227.42;3777555;76;394222;-81
2021/03/09 22:22:12;;;;;;;6.90;3.23;;;;;;;3.69;100.00;99227.25;3777464;76;393974;-80
2021/03/09 22:27:33;;;;;;;4.17;3.80;;;;;;;3.69;100.00;99232.69;3777225;76;396175;-81
2021/03/09 22:32:54;;;;;;;8.63;3.87;;;;;;;3.70;100.00;99231.55;3814606;76;394274;-82
2021/03/09 22:38:15;;;;;;;3.97;2.73;;;;;;;3.81;100.00;99237.26;3825353;75;396127;-82
2021/03/09 22:43:36;;;;;;;6.97;3.47;;;;;;;3.70;100.00;99232.92;3818029;76;396081;-83
2021/03/09 22:48:57;;;;;;;4.10;3.03;;;;;;;3.70;100.00;99233.50;3818468;76;396114;-83
2021/03/09 22:54:19;;;;;;;11.80;4.47;;;;;;;3.76;100.00;99236.95;3818107;76;394987;-83
2021/03/09 22:59:40;;;;;;;3.97;3.30;;;;;;;3.64;100.00;99230.80;3818138;76;396375;-83
2021/03/09 23:05:02;;;;;;;2.23;2.10;;;;;;;3.44;100.00;99216.89;3817857;76;395084;-82
2021/03/09 23:10:23;;;;;;;7.23;2.50;;;;;;;3.52;100.00;99215.94;3819423;74;394194;-82
2021/03/09 23:15:45;;;;;;;7.53;3.07;;;;;;;3.50;100.00;99218.20;3817625;74;396300;-82
2021/03/09 23:21:07;;;;;;;12.40;5.07;;;;;;;3.59;100.00;99224.27;3812625;75;396331;-81
2021/03/09 23:26:28;;;;;;;4.70;2.80;;;;;;;3.58;100.00;99224.85;3817841;76;396339;-82
2021/03/09 23:31:51;;;;;;;1.73;1.63;;;;;;;3.53;100.00;99219.66;3791999;76;393996;-81
2021/03/09 23:37:12;;;;;;;3.67;3.33;;;;;;;3.48;100.00;99220.48;3812970;76;393223;-81
2021/03/09 23:42:33;;;;;;;6.80;3.40;;;;;;;3.39;100.00;99215.22;3811795;76;396365;-81
2021/03/09 23:47:55;;;;;;;11.87;4.80;;;;;;;3.44;100.00;99206.79;3812898;76;400263;-82
2021/03/09 23:53:17;;;;;;;6.17;2.73;;;;;;;3.47;100.00;99212.12;3812795;76;396344;-82
2021/03/09 23:58:38;;;;;;;9.13;3.83;;;;;;;3.55;100.00;99217.97;3813644;76;396069;-81
